Time;durP1;ratioP1;P1;durP2;ratioP2;P2;SDS_P1;SDS_P2;PMS_P1;PMS_P2;Temp;Humidity;BMP_temperature;BMP_pressure;BME280_temperature;BME280_humidity;BME280_pressure;Samples;Min_cycle;Max_cycle;Signal;HPM_P1;HPM_P2
2023/12/27 00:04:26;;;;;;;15.93;12.30;;;;;;;;;;10537312;28;20020;-54
2023/12/27 00:09:27;;;;;;;14.52;12.07;;;;;;;;;;10537162;28;20032;-55
2023/12/27 00:14:28;;;;;;;14.93;12.60;;;;;;;;;;10536878;28;20032;-56
2023/12/27 00:19:28;;;;;;;17.27;12.38;;;;;;;;;;10536494;28;20031;-56
2023/12/27 00:24:29;;;;;;;16.67;12.48;;;;;;;;;;10536735;28;20025;-56
2023/12/27 00:29:30;;;;;;;17.23;12.85;;;;;;;;;;10536235;28;20035;-55
2023/12/27 00:34:32;;;;;;;16.65;12.65;;;;;;;;;;10535953;28;20119;-54
2023/12/27 00:39:34;;;;;;;14.35;11.15;;;;;;;;;;10536275;28;20044;-55
2023/12/27 00:44:34;;;;;;;16.48;12.90;;;;;;;;;;10536080;28;20028;-54
2023/12/27 00:49:35;;;;;;;15.38;11.82;;;;;;;;;;10535129;28;20024;-52
2023/12/27 00:54:35;;;;;;;14.80;12.35;;;;;;;;;;10535937;28;20032;-52
2023/12/27 00:59:36;;;;;;;12.93;11.25;;;;;;;;;;10535112;28;20523;-55
2023/12/27 01:04:37;;;;;;;13.80;11.15;;;;;;;;;;10534740;28;20047;-52
2023/12/27 01:09:37;;;;;;;17.98;11.48;;;;;;;;;;10535104;28;20032;-52
2023/12/27 01:14:38;;;;;;;14.15;11.77;;;;;;;;;;10534301;28;20113;-54
2023/12/27 01:19:39;;;;;;;15.10;11.02;;;;;;;;;;10534129;28;20028;-53
2023/12/27 01:24:39;;;;;;;14.13;11.65;;;;;;;;;;10534144;28;20518;-54
2023/12/27 01:29:40;;;;;;;13.38;11.25;;;;;;;;;;10534386;28;20250;-55
2023/12/27 01:34:40;;;;;;;13.02;10.55;;;;;;;;;;10533699;28;20024;-56
2023/12/27 01:39:41;;;;;;;14.50;12.15;;;;;;;;;;10533979;28;20035;-55
2023/12/27 01:44:41;;;;;;;12.27;10.73;;;;;;;;;;10533449;28;20494;-55
2023/12/27 01:49:42;;;;;;;12.15;10.82;;;;;;;;;;10533571;28;20437;-56
2023/12/27 01:54:43;;;;;;;13.90;11.55;;;;;;;;;;10533072;28;20392;-55
2023/12/27 01:59:45;;;;;;;15.68;11.90;;;;;;;;;;10545291;22;20554;-65
2023/12/27 02:04:46;;;;;;;14.35;11.13;;;;;;;;;;10515578;28;20032;-65
2023/12/27 02:09:49;;;;;;;12.18;10.50;;;;;;;;;;10531981;28;20031;-65
2023/12/27 02:14:49;;;;;;;12.63;10.77;;;;;;;;;;10532816;28;20035;-65
2023/12/27 02:19:51;;;;;;;12.27;10.98;;;;;;;;;;10532248;28;20414;-65
2023/12/27 02:24:53;;;;;;;12.60;10.77;;;;;;;;;;10532293;28;20020;-65
2023/12/27 02:29:54;;;;;;;13.02;10.60;;;;;;;;;;10532239;28;20100;-62
2023/12/27 02:34:55;;;;;;;13.20;11.40;;;;;;;;;;10532552;28;20035;-62
2023/12/27 02:39:57;;;;;;;12.73;10.57;;;;;;;;;;10532493;28;20032;-63
2023/12/27 02:44:58;;;;;;;12.55;10.90;;;;;;;;;;10532081;28;20021;-63
2023/12/27 02:49:58;;;;;;;13.48;11.20;;;;;;;;;;10531951;28;20039;-62
2023/12/27 02:54:59;;;;;;;14.85;11.60;;;;;;;;;;10531706;28;20048;-63
2023/12/27 03:00:00;;;;;;;13.50;11.90;;;;;;;;;;10531197;28;20044;-62
2023/12/27 03:05:00;;;;;;;12.48;11.10;;;;;;;;;;10531972;28;20168;-62
2023/12/27 03:10:01;;;;;;;13.40;11.13;;;;;;;;;;10532103;28;20051;-62
2023/12/27 03:15:01;;;;;;;14.75;11.95;;;;;;;;;;10539145;28;20196;-62
2023/12/27 03:20:02;;;;;;;12.50;11.15;;;;;;;;;;10539268;28;20031;-62
2023/12/27 03:25:04;;;;;;;14.38;11.68;;;;;;;;;;10538784;28;20028;-62
2023/12/27 03:30:05;;;;;;;13.98;11.57;;;;;;;;;;10538128;28;20020;-62
2023/12/27 03:35:06;;;;;;;12.52;11.02;;;;;;;;;;10538403;28;20387;-62
2023/12/27 03:40:08;;;;;;;12.63;11.32;;;;;;;;;;10538491;28;20036;-61
2023/12/27 03:45:09;;;;;;;12.70;11.40;;;;;;;;;;10538028;28;20056;-62
2023/12/27 03:50:10;;;;;;;13.68;11.55;;;;;;;;;;10537628;28;20061;-61
2023/12/27 03:55:11;;;;;;;12.43;10.65;;;;;;;;;;10537546;28;20065;-65
2023/12/27 04:00:12;;;;;;;12.15;10.88;;;;;;;;;;10537472;28;20040;-62
2023/12/27 04:05:13;;;;;;;12.48;11.10;;;;;;;;;;10537689;28;20047;-62
2023/12/27 04:10:14;;;;;;;13.52;11.85;;;;;;;;;;10537970;28;20103;-63
2023/12/27 04:15:14;;;;;;;14.20;11.52;;;;;;;;;;10536981;28;20151;-62
2023/12/27 04:20:15;;;;;;;14.95;12.65;;;;;;;;;;10537028;28;20035;-63
2023/12/27 04:25:15;;;;;;;13.35;11.43;;;;;;;;;;10535977;28;20047;-62
2023/12/27 04:30:16;;;;;;;14.30;10.73;;;;;;;;;;10536121;28;20028;-62
2023/12/27 04:35:16;;;;;;;16.25;11.32;;;;;;;;;;10536567;28;20029;-62
2023/12/27 04:40:18;;;;;;;13.05;11.63;;;;;;;;;;10535761;28;20035;-62
2023/12/27 04:45:18;;;;;;;13.85;11.43;;;;;;;;;;10536049;28;20020;-62
2023/12/27 04:50:19;;;;;;;12.68;11.35;;;;;;;;;;10535817;28;20388;-62
2023/12/27 04:55:19;;;;;;;12.07;10.75;;;;;;;;;;10536027;28;20032;-62
2023/12/27 05:00:22;;;;;;;15.07;10.65;;;;;;;;;;10534631;28;20101;-62
2023/12/27 05:05:23;;;;;;;17.70;10.68;;;;;;;;;;10535242;28;20027;-62
2023/12/27 05:10:23;;;;;;;14.32;11.05;;;;;;;;;;10534600;28;20047;-62
2023/12/27 05:15:24;;;;;;;12.48;11.18;;;;;;;;;;10534505;28;20054;-62
2023/12/27 05:20:24;;;;;;;14.48;12.18;;;;;;;;;;10534211;28;20363;-64
2023/12/27 05:25:25;;;;;;;13.52;10.80;;;;;;;;;;10534251;28;20032;-64
2023/12/27 05:30:26;;;;;;;13.18;11.05;;;;;;;;;;10533817;28;20093;-61
2023/12/27 05:35:26;;;;;;;14.00;10.70;;;;;;;;;;10533448;28;20035;-63
2023/12/27 05:40:27;;;;;;;14.18;11.07;;;;;;;;;;10533931;28;20039;-63
2023/12/27 05:45:27;;;;;;;13.02;10.50;;;;;;;;;;10533446;28;20413;-63
2023/12/27 05:50:28;;;;;;;11.38;10.20;;;;;;;;;;10533610;28;20395;-64
2023/12/27 05:55:29;;;;;;;11.32;10.13;;;;;;;;;;10533773;28;20275;-63
2023/12/27 06:00:29;;;;;;;12.02;10.02;;;;;;;;;;10532901;28;20044;-64
2023/12/27 06:05:30;;;;;;;11.52;10.18;;;;;;;;;;10532482;28;20020;-62
2023/12/27 06:10:30;;;;;;;12.13;10.48;;;;;;;;;;10532426;28;20095;-62
2023/12/27 06:15:31;;;;;;;12.55;11.07;;;;;;;;;;10532722;28;20020;-63
2023/12/27 06:20:32;;;;;;;12.23;10.10;;;;;;;;;;10531901;28;20038;-63
2023/12/27 06:25:32;;;;;;;11.15;9.95;;;;;;;;;;10532018;28;20059;-62
2023/12/27 06:30:33;;;;;;;12.32;10.20;;;;;;;;;;10532516;28;20025;-63
2023/12/27 06:35:34;;;;;;;11.25;10.05;;;;;;;;;;10532394;28;20016;-63
2023/12/27 06:40:34;;;;;;;12.50;10.57;;;;;;;;;;10531886;28;20267;-66
2023/12/27 06:45:35;;;;;;;10.65;9.13;;;;;;;;;;10533808;28;20032;-62
2023/12/27 06:50:35;;;;;;;10.80;9.70;;;;;;;;;;10540139;28;20495;-62
2023/12/27 06:55:36;;;;;;;12.90;9.88;;;;;;;;;;10540588;28;20417;-61
2023/12/27 07:00:38;;;;;;;11.35;9.68;;;;;;;;;;10539756;28;20063;-62
2023/12/27 07:05:39;;;;;;;12.93;9.63;;;;;;;;;;10538843;28;20179;-62
2023/12/27 07:10:39;;;;;;;10.27;9.07;;;;;;;;;;10539503;28;20020;-63
2023/12/27 07:15:40;;;;;;;9.93;8.90;;;;;;;;;;10538898;28;20368;-63
2023/12/27 07:20:41;;;;;;;10.32;9.20;;;;;;;;;;10538955;28;20379;-63
2023/12/27 07:25:41;;;;;;;11.23;8.98;;;;;;;;;;10538993;28;20032;-64
2023/12/27 07:30:42;;;;;;;11.45;8.65;;;;;;;;;;10538399;28;20032;-63
2023/12/27 07:35:43;;;;;;;9.10;8.20;;;;;;;;;;10538337;28;20028;-62
2023/12/27 07:40:44;;;;;;;10.52;8.77;;;;;;;;;;10538424;28;20035;-65
2023/12/27 07:45:45;;;;;;;11.07;8.00;;;;;;;;;;10539093;28;20055;-62
2023/12/27 07:50:46;;;;;;;13.25;9.10;;;;;;;;;;10538371;28;20032;-63
2023/12/27 07:55:46;;;;;;;11.25;9.32;;;;;;;;;;10538363;28;20031;-63
2023/12/27 08:00:47;;;;;;;10.27;9.23;;;;;;;;;;10536491;28;20052;-62
2023/12/27 08:05:48;;;;;;;11.48;8.40;;;;;;;;;;10537837;28;20081;-63
2023/12/27 08:10:49;;;;;;;9.82;8.23;;;;;;;;;;10537617;28;20027;-62
2023/12/27 08:15:49;;;;;;;9.95;8.70;;;;;;;;;;10537442;28;20482;-63
2023/12/27 08:20:51;;;;;;;8.88;7.88;;;;;;;;;;10536634;28;20251;-62
2023/12/27 08:25:51;;;;;;;9.00;8.10;;;;;;;;;;10536690;28;20031;-62
2023/12/27 08:30:53;;;;;;;11.27;8.85;;;;;;;;;;10536154;28;20387;-62
2023/12/27 08:35:54;;;;;;;15.02;8.20;;;;;;;;;;10536058;28;20494;-63
2023/12/27 08:40:54;;;;;;;9.80;8.07;;;;;;;;;;10535704;28;20031;-62
2023/12/27 08:45:56;;;;;;;9.50;7.80;;;;;;;;;;10535630;28;20032;-62
2023/12/27 08:50:57;;;;;;;9.23;8.20;;;;;;;;;;10535883;28;20093;-62
2023/12/27 08:55:58;;;;;;;9.63;8.30;;;;;;;;;;10536313;28;20286;-62
2023/12/27 09:01:00;;;;;;;9.20;7.93;;;;;;;;;;10534912;28;20603;-62
2023/12/27 09:06:00;;;;;;;8.93;7.78;;;;;;;;;;10534769;28;20360;-63
2023/12/27 09:11:01;;;;;;;8.70;7.50;;;;;;;;;;10535072;28;20036;-62
2023/12/27 09:16:03;;;;;;;9.70;8.18;;;;;;;;;;10535144;28;20020;-62
2023/12/27 09:21:04;;;;;;;10.85;7.75;;;;;;;;;;10535221;28;20219;-63
2023/12/27 09:26:12;;;;;;;8.50;7.63;;;;;;;;;;10534711;28;20131;-62
2023/12/27 09:31:13;;;;;;;9.70;7.75;;;;;;;;;;10534399;28;20219;-62
2023/12/27 09:36:20;;;;;;;8.63;7.72;;;;;;;;;;10533887;28;20024;-62
2023/12/27 09:41:21;;;;;;;10.50;8.07;;;;;;;;;;10534536;28;20031;-62
2023/12/27 09:46:24;;;;;;;8.73;7.60;;;;;;;;;;10533867;28;20028;-63
2023/12/27 09:51:25;;;;;;;8.32;7.53;;;;;;;;;;10515852;28;20085;-62
2023/12/27 09:56:28;;;;;;;9.95;7.85;;;;;;;;;;10533262;28;20032;-62
2023/12/27 10:01:34;;;;;;;10.68;7.40;;;;;;;;;;10514768;28;20585;-63
2023/12/27 10:06:44;;;;;;;8.02;7.18;;;;;;;;;;10532748;28;20021;-62
2023/12/27 10:11:45;;;;;;;8.73;7.45;;;;;;;;;;10532643;28;20082;-62
2023/12/27 10:16:45;;;;;;;8.60;7.25;;;;;;;;;;10532820;28;20078;-62
2023/12/27 10:21:46;;;;;;;8.80;7.35;;;;;;;;;;10532451;28;20459;-62
2023/12/27 10:26:46;;;;;;;8.23;6.95;;;;;;;;;;10532491;28;20432;-62
2023/12/27 10:31:48;;;;;;;8.32;7.10;;;;;;;;;;10532699;28;20421;-62
2023/12/27 10:36:52;;;;;;;9.18;7.32;;;;;;;;;;10532587;28;20024;-62
2023/12/27 10:41:53;;;;;;;7.68;6.88;;;;;;;;;;10532510;28;20052;-62
2023/12/27 10:46:55;;;;;;;8.85;7.18;;;;;;;;;;10532514;28;20183;-62
2023/12/27 10:51:57;;;;;;;10.38;7.68;;;;;;;;;;10530576;28;20035;-62
2023/12/27 10:57:00;;;;;;;10.13;7.20;;;;;;;;;;10531177;28;20024;-62
2023/12/27 11:02:01;;;;;;;9.95;6.93;;;;;;;;;;10513777;28;20044;-62
2023/12/27 11:07:03;;;;;;;7.78;7.00;;;;;;;;;;10532558;28;20027;-63
2023/12/27 11:12:07;;;;;;;7.75;6.95;;;;;;;;;;10531639;28;20496;-63
2023/12/27 11:17:10;;;;;;;8.10;6.53;;;;;;;;;;10531922;28;20028;-62
2023/12/27 11:22:12;;;;;;;9.18;6.85;;;;;;;;;;10530616;28;20021;-62
2023/12/27 11:27:17;;;;;;;11.27;6.88;;;;;;;;;;10531634;28;20024;-63
2023/12/27 11:32:19;;;;;;;8.95;6.60;;;;;;;;;;10514862;28;20154;-62
2023/12/27 11:37:19;;;;;;;8.07;6.78;;;;;;;;;;10538756;28;20024;-62
2023/12/27 11:42:22;;;;;;;7.60;6.80;;;;;;;;;;10538373;28;20028;-64
2023/12/27 11:47:23;;;;;;;7.85;6.57;;;;;;;;;;10538083;28;20395;-62
2023/12/27 11:52:27;;;;;;;8.40;6.72;;;;;;;;;;10538254;28;20024;-63
2023/12/27 11:57:28;;;;;;;8.55;7.30;;;;;;;;;;10537561;28;20552;-62
2023/12/27 12:02:29;;;;;;;8.65;6.45;;;;;;;;;;10537580;28;20087;-63
2023/12/27 12:07:39;;;;;;;9.85;6.53;;;;;;;;;;10519391;28;20020;-62
2023/12/27 12:12:39;;;;;;;7.75;6.07;;;;;;;;;;10537299;28;20036;-62
2023/12/27 12:17:40;;;;;;;7.55;6.13;;;;;;;;;;10518741;28;20028;-65
2023/12/27 12:22:43;;;;;;;8.90;6.47;;;;;;;;;;10536638;28;20472;-62
2023/12/27 12:27:48;;;;;;;9.02;6.45;;;;;;;;;;10537030;28;20035;-62
2023/12/27 12:32:49;;;;;;;6.80;6.00;;;;;;;;;;10536308;28;20032;-62
2023/12/27 12:37:50;;;;;;;8.40;5.88;;;;;;;;;;10536313;28;20028;-62
2023/12/27 12:42:52;;;;;;;7.75;6.13;;;;;;;;;;10535945;28;20024;-62
2023/12/27 12:47:53;;;;;;;7.50;6.03;;;;;;;;;;10518315;28;20108;-62
2023/12/27 12:52:54;;;;;;;6.50;5.90;;;;;;;;;;10535326;28;20407;-62
2023/12/27 12:57:58;;;;;;;7.55;6.00;;;;;;;;;;10535101;28;20035;-62
2023/12/27 13:02:59;;;;;;;6.95;6.25;;;;;;;;;;10534932;28;20048;-62
2023/12/27 13:08:06;;;;;;;8.68;5.88;;;;;;;;;;10534696;28;20387;-62
2023/12/27 13:13:07;;;;;;;11.20;5.82;;;;;;;;;;10535175;28;20020;-62
2023/12/27 13:18:07;;;;;;;6.43;5.68;;;;;;;;;;10534340;28;20035;-62
2023/12/27 13:23:08;;;;;;;8.60;5.80;;;;;;;;;;10534204;28;20486;-62
2023/12/27 13:28:08;;;;;;;8.60;5.97;;;;;;;;;;10534357;28;20242;-62
2023/12/27 13:33:09;;;;;;;6.55;5.38;;;;;;;;;;10533944;28;20032;-62
2023/12/27 13:38:11;;;;;;;6.05;5.45;;;;;;;;;;10533796;28;20097;-62
2023/12/27 13:43:12;;;;;;;6.80;5.60;;;;;;;;;;10534122;28;20154;-62
2023/12/27 13:48:12;;;;;;;6.80;5.68;;;;;;;;;;10533726;28;20532;-62
2023/12/27 13:53:13;;;;;;;6.97;5.50;;;;;;;;;;10533766;28;20490;-62
2023/12/27 13:58:14;;;;;;;6.03;5.43;;;;;;;;;;10532587;28;20024;-62
2023/12/27 14:03:15;;;;;;;7.65;5.72;;;;;;;;;;10533429;28;20023;-62
2023/12/27 14:08:16;;;;;;;7.22;5.53;;;;;;;;;;10533157;28;20032;-62
2023/12/27 14:13:18;;;;;;;5.82;4.97;;;;;;;;;;10532760;28;20028;-62
2023/12/27 14:18:18;;;;;;;6.00;5.40;;;;;;;;;;10532247;28;20409;-62
2023/12/27 14:23:19;;;;;;;5.72;5.10;;;;;;;;;;10533264;28;20024;-62
2023/12/27 14:28:21;;;;;;;5.40;4.90;;;;;;;;;;10532728;28;20031;-62
2023/12/27 14:33:21;;;;;;;7.43;5.65;;;;;;;;;;10533270;28;20108;-62
2023/12/27 14:38:22;;;;;;;6.75;5.32;;;;;;;;;;10533033;28;20490;-63
2023/12/27 14:43:22;;;;;;;6.25;4.90;;;;;;;;;;10532322;28;20475;-62
2023/12/27 14:48:23;;;;;;;6.55;5.15;;;;;;;;;;10531991;28;20467;-63
2023/12/27 14:53:23;;;;;;;6.47;4.88;;;;;;;;;;10532226;28;20510;-63
2023/12/27 14:58:24;;;;;;;5.53;4.63;;;;;;;;;;10531581;28;20032;-63
2023/12/27 15:03:25;;;;;;;5.40;4.90;;;;;;;;;;10531682;28;20057;-62
2023/12/27 15:08:25;;;;;;;6.00;5.07;;;;;;;;;;10536713;28;20028;-63
2023/12/27 15:13:26;;;;;;;6.70;5.30;;;;;;;;;;10539889;28;20040;-62
2023/12/27 15:18:30;;;;;;;7.38;5.20;;;;;;;;;;10539181;28;20027;-63
2023/12/27 15:23:33;;;;;;;5.20;4.70;;;;;;;;;;10540119;28;20024;-62
2023/12/27 15:28:35;;;;;;;6.32;5.28;;;;;;;;;;10539024;28;20031;-62
2023/12/27 15:33:36;;;;;;;7.15;4.90;;;;;;;;;;10538541;28;20387;-62
2023/12/27 15:38:36;;;;;;;6.15;5.05;;;;;;;;;;10520334;28;20073;-63
2023/12/27 15:43:39;;;;;;;6.20;5.28;;;;;;;;;;10538839;28;20256;-62
2023/12/27 15:48:40;;;;;;;5.53;5.00;;;;;;;;;;10537884;28;20051;-62
2023/12/27 15:53:40;;;;;;;6.22;5.00;;;;;;;;;;10538003;28;20028;-62
2023/12/27 15:58:41;;;;;;;6.30;4.85;;;;;;;;;;10537030;28;20093;-62
2023/12/27 16:03:42;;;;;;;6.63;5.25;;;;;;;;;;10537399;28;20028;-62
2023/12/27 16:08:43;;;;;;;6.22;5.07;;;;;;;;;;10537247;28;20024;-62
2023/12/27 16:13:45;;;;;;;5.40;4.90;;;;;;;;;;10518810;28;20055;-62
2023/12/27 16:18:46;;;;;;;7.32;5.22;;;;;;;;;;10536425;28;20024;-62
2023/12/27 16:23:47;;;;;;;7.13;5.30;;;;;;;;;;10537247;28;20032;-63
2023/12/27 16:28:47;;;;;;;9.73;5.30;;;;;;;;;;10536994;28;20023;-63
2023/12/27 16:33:49;;;;;;;6.40;5.25;;;;;;;;;;10536818;28;20491;-64
2023/12/27 16:38:53;;;;;;;6.30;5.70;;;;;;;;;;10536117;28;20046;-63
2023/12/27 16:43:57;;;;;;;10.10;5.43;;;;;;;;;;10536556;28;20040;-63
2023/12/27 16:48:58;;;;;;;8.15;5.68;;;;;;;;;;10536308;28;20119;-63
2023/12/27 16:53:59;;;;;;;6.60;5.47;;;;;;;;;;10534613;28;20024;-63
2023/12/27 16:58:59;;;;;;;10.52;5.28;;;;;;;;;;10535675;28;20044;-63
2023/12/27 17:04:01;;;;;;;15.98;5.38;;;;;;;;;;10535084;28;20050;-64
2023/12/27 17:09:01;;;;;;;12.75;5.63;;;;;;;;;;10535002;28;20107;-65
2023/12/27 17:14:03;;;;;;;7.68;5.35;;;;;;;;;;10532279;28;20031;-65
2023/12/27 17:19:03;;;;;;;11.88;5.68;;;;;;;;;;10532144;28;20434;-65
2023/12/27 17:24:04;;;;;;;8.85;5.95;;;;;;;;;;10533189;28;20082;-64
2023/12/27 17:29:05;;;;;;;11.18;5.75;;;;;;;;;;10533167;28;20107;-65
2023/12/27 17:34:05;;;;;;;7.47;5.55;;;;;;;;;;10533294;28;20036;-65
2023/12/27 17:39:07;;;;;;;6.57;5.40;;;;;;;;;;10532877;28;20036;-64
2023/12/27 17:44:08;;;;;;;12.63;5.50;;;;;;;;;;10533375;28;20375;-63
2023/12/27 17:49:08;;;;;;;12.30;6.00;;;;;;;;;;10533306;28;20099;-65
2023/12/27 17:54:10;;;;;;;7.10;4.85;;;;;;;;;;10532294;28;20035;-64
2023/12/27 17:59:11;;;;;;;7.18;5.55;;;;;;;;;;10532341;28;20175;-64
2023/12/27 18:04:13;;;;;;;7.65;5.68;;;;;;;;;;10532397;28;20121;-65
2023/12/27 18:09:14;;;;;;;6.82;5.85;;;;;;;;;;10532320;28;20087;-64
2023/12/27 18:14:14;;;;;;;7.00;5.47;;;;;;;;;;10532611;28;20023;-65
2023/12/27 18:19:15;;;;;;;8.05;5.40;;;;;;;;;;10532347;28;20036;-64
2023/12/27 18:24:16;;;;;;;8.85;5.10;;;;;;;;;;10532189;28;20089;-64
2023/12/27 18:29:17;;;;;;;9.98;5.90;;;;;;;;;;10531153;28;20047;-64
2023/12/27 18:34:17;;;;;;;6.05;5.40;;;;;;;;;;10531070;28;20031;-64
2023/12/27 18:39:19;;;;;;;7.07;5.50;;;;;;;;;;10531657;28;20036;-64
2023/12/27 18:44:21;;;;;;;7.70;5.53;;;;;;;;;;10538411;28;20053;-64
2023/12/27 18:49:22;;;;;;;8.30;6.50;;;;;;;;;;10539550;28;20111;-64
2023/12/27 18:54:23;;;;;;;9.43;6.40;;;;;;;;;;10539552;28;20119;-64
2023/12/27 18:59:23;;;;;;;8.23;6.50;;;;;;;;;;10538708;28;20052;-64
2023/12/27 19:04:24;;;;;;;13.45;6.57;;;;;;;;;;10538979;28;20207;-65
2023/12/27 19:09:24;;;;;;;10.68;7.18;;;;;;;;;;10538765;28;20043;-64
2023/12/27 19:14:25;;;;;;;10.25;7.10;;;;;;;;;;10538984;28;20035;-65
2023/12/27 19:19:25;;;;;;;10.60;7.22;;;;;;;;;;10538658;28;20024;-64
2023/12/27 19:24:26;;;;;;;9.77;7.28;;;;;;;;;;10538439;28;20089;-65
2023/12/27 19:29:27;;;;;;;11.23;7.63;;;;;;;;;;10538811;28;20035;-64
2023/12/27 19:34:27;;;;;;;12.75;8.05;;;;;;;;;;10538677;28;20024;-65
2023/12/27 19:39:28;;;;;;;11.38;7.78;;;;;;;;;;10538015;28;20028;-64
2023/12/27 19:44:29;;;;;;;10.73;7.93;;;;;;;;;;10537699;28;20055;-64
2023/12/27 19:49:29;;;;;;;12.50;8.52;;;;;;;;;;10537477;28;20383;-64
2023/12/27 19:54:31;;;;;;;12.13;8.50;;;;;;;;;;10536365;28;20383;-64
2023/12/27 19:59:31;;;;;;;15.88;8.73;;;;;;;;;;10537072;28;20525;-64
2023/12/27 20:04:34;;;;;;;11.75;8.73;;;;;;;;;;10537392;28;20035;-64
2023/12/27 20:09:35;;;;;;;12.93;8.82;;;;;;;;;;10537192;28;20109;-65
2023/12/27 20:14:36;;;;;;;12.73;9.10;;;;;;;;;;10536917;28;20023;-64
2023/12/27 20:19:37;;;;;;;11.80;8.82;;;;;;;;;;10536753;28;20024;-64
2023/12/27 20:24:37;;;;;;;15.82;10.05;;;;;;;;;;10535120;28;20032;-64
2023/12/27 20:29:39;;;;;;;12.25;8.70;;;;;;;;;;10528733;28;20016;-65
2023/12/27 20:34:41;;;;;;;11.02;8.93;;;;;;;;;;10535934;28;20368;-64
2023/12/27 20:39:42;;;;;;;15.13;8.85;;;;;;;;;;10517888;28;20047;-63
2023/12/27 20:44:43;;;;;;;30.27;10.80;;;;;;;;;;10534941;28;20491;-64
2023/12/27 20:49:45;;;;;;;21.90;9.75;;;;;;;;;;10533421;28;20033;-63
2023/12/27 20:54:46;;;;;;;21.95;9.82;;;;;;;;;;10535294;28;20205;-63
2023/12/27 20:59:47;;;;;;;16.58;9.15;;;;;;;;;;10534615;28;20052;-64
2023/12/27 21:04:47;;;;;;;14.50;8.88;;;;;;;;;;10535126;28;20031;-65
2023/12/27 21:09:49;;;;;;;18.67;9.13;;;;;;;;;;10535187;28;20056;-65
2023/12/27 21:14:49;;;;;;;14.60;8.57;;;;;;;;;;10534791;28;20529;-64
2023/12/27 21:19:51;;;;;;;12.32;8.82;;;;;;;;;;10534274;28;20024;-65
2023/12/27 21:24:51;;;;;;;22.95;9.98;;;;;;;;;;10534544;28;20036;-64
2023/12/27 21:29:53;;;;;;;18.13;9.38;;;;;;;;;;10534022;28;20020;-64
2023/12/27 21:34:54;;;;;;;20.20;9.35;;;;;;;;;;10534686;28;20111;-64
2023/12/27 21:39:54;;;;;;;15.50;9.70;;;;;;;;;;10533842;28;20039;-65
2023/12/27 21:44:55;;;;;;;15.00;9.77;;;;;;;;;;10533668;28;20036;-65
2023/12/27 21:49:55;;;;;;;18.17;9.38;;;;;;;;;;10532430;28;20685;-65
2023/12/27 21:54:56;;;;;;;16.38;8.88;;;;;;;;;;10530662;28;20410;-64
2023/12/27 21:59:57;;;;;;;17.85;9.75;;;;;;;;;;10527455;28;20109;-65
2023/12/27 22:04:58;;;;;;;17.45;9.68;;;;;;;;;;10515480;28;20107;-67
2023/12/27 22:09:59;;;;;;;15.88;9.55;;;;;;;;;;10533688;28;20043;-65
2023/12/27 22:14:59;;;;;;;15.68;9.77;;;;;;;;;;10532448;28;20031;-63
2023/12/27 22:20:00;;;;;;;14.73;9.20;;;;;;;;;;10532546;28;20059;-65
2023/12/27 22:25:00;;;;;;;16.90;9.65;;;;;;;;;;10532142;28;20433;-63
2023/12/27 22:30:01;;;;;;;13.45;8.77;;;;;;;;;;10530200;28;20036;-62
2023/12/27 22:35:02;;;;;;;13.60;9.18;;;;;;;;;;10530475;28;20410;-65
2023/12/27 22:40:02;;;;;;;14.75;9.15;;;;;;;;;;10530482;28;20043;-62
2023/12/27 22:45:04;;;;;;;14.57;8.60;;;;;;;;;;10532170;28;20107;-62
2023/12/27 22:50:06;;;;;;;14.95;8.70;;;;;;;;;;10531515;28;20470;-62
2023/12/27 22:55:06;;;;;;;17.65;8.57;;;;;;;;;;10532073;28;20113;-61
2023/12/27 23:00:17;;;;;;;13.32;8.52;;;;;;;;;;10528612;28;20040;-61
2023/12/27 23:05:20;;;;;;;11.55;8.38;;;;;;;;;;10531695;28;20028;-62
2023/12/27 23:10:21;;;;;;;14.52;8.57;;;;;;;;;;10529329;28;20020;-64
2023/12/27 23:15:21;;;;;;;9.98;7.65;;;;;;;;;;10531639;28;20024;-63
2023/12/27 23:20:22;;;;;;;14.90;8.05;;;;;;;;;;10531294;28;20110;-65
2023/12/27 23:25:23;;;;;;;14.23;8.48;;;;;;;;;;10530319;28;20020;-64
2023/12/27 23:30:23;;;;;;;12.48;7.90;;;;;;;;;;10536948;28;20456;-64
2023/12/27 23:35:24;;;;;;;13.98;8.55;;;;;;;;;;10536986;28;20024;-66
2023/12/27 23:40:25;;;;;;;11.52;8.13;;;;;;;;;;10538844;28;20031;-63
2023/12/27 23:45:25;;;;;;;9.70;7.78;;;;;;;;;;10538429;28;20028;-62
2023/12/27 23:50:26;;;;;;;14.18;7.78;;;;;;;;;;10519548;28;20028;-63
2023/12/27 23:55:26;;;;;;;12.98;7.95;;;;;;;;;;10538951;28;20054;-63
